createdAt,value
2018-06-28T00:02:25.346Z,2.10
2018-06-28T00:04:53.582Z,1.72
2018-06-28T00:07:22.639Z,1.37
2018-06-28T00:09:50.895Z,3.47
2018-06-28T00:12:20.034Z,2.30
2018-06-28T00:14:48.361Z,1.30
2018-06-28T00:17:16.583Z,3.27
2018-06-28T00:19:44.802Z,1.70
2018-06-28T00:22:13.323Z,1.20
2018-06-28T00:24:41.571Z,2.58
2018-06-28T00:27:09.862Z,1.90
2018-06-28T00:29:39.286Z,2.62
2018-06-28T00:32:07.550Z,1.20
2018-06-28T00:34:35.784Z,1.50
2018-06-28T00:37:04.334Z,1.65
2018-06-28T00:39:32.595Z,1.50
2018-06-28T00:42:00.832Z,2.92
2018-06-28T00:44:29.350Z,2.67
2018-06-28T00:46:57.600Z,1.75
2018-06-28T00:49:25.875Z,2.08
2018-06-28T00:51:55.116Z,1.77
2018-06-28T00:54:23.350Z,1.55
2018-06-28T00:56:51.646Z,1.95
2018-06-28T00:59:20.247Z,1.70
2018-06-28T01:01:48.501Z,1.10
2018-06-28T01:04:16.754Z,1.42
2018-06-28T01:06:45.008Z,1.77
2018-06-28T01:09:15.098Z,1.45
2018-06-28T01:11:43.336Z,1.87
2018-06-28T01:14:11.860Z,1.95
2018-06-28T01:16:40.103Z,1.42
2018-06-28T01:19:08.957Z,1.45
2018-06-28T01:21:37.382Z,1.20
2018-06-28T01:24:05.650Z,1.30
2018-06-28T01:26:34.206Z,1.87
2018-06-28T01:29:03.054Z,1.30
2018-06-28T01:31:31.358Z,1.62
2018-06-28T01:33:59.609Z,1.42
2018-06-28T01:36:27.997Z,2.52
2018-06-28T01:38:56.225Z,1.25
2018-06-28T01:41:24.918Z,1.12
2018-06-28T01:43:53.423Z,1.62
2018-06-28T01:46:21.658Z,1.20
2018-06-28T01:48:49.880Z,1.52
2018-06-28T01:51:18.155Z,1.62
2018-06-28T01:53:46.406Z,1.67
2018-06-28T01:56:14.639Z,1.80
2018-06-28T01:58:43.192Z,1.90
2018-06-28T02:01:11.425Z,1.00
2018-06-28T02:03:39.671Z,1.12
2018-06-28T02:06:08.507Z,1.15
2018-06-28T02:08:38.250Z,1.17
2018-06-28T02:11:06.887Z,1.20
2018-06-28T02:13:35.423Z,1.55
2018-06-28T02:16:03.807Z,1.27
2018-06-28T02:18:32.051Z,1.92
2018-06-28T02:21:00.331Z,1.20
2018-06-28T02:23:28.583Z,1.00
2018-06-28T02:25:56.815Z,1.70
2018-06-28T02:28:25.515Z,1.32
2018-06-28T02:30:53.779Z,0.95
2018-06-28T02:33:22.055Z,1.32
2018-06-28T02:35:50.309Z,1.25
2018-06-28T02:38:18.526Z,1.12
2018-06-28T02:40:46.775Z,1.42
2018-06-28T02:43:15.072Z,1.85
2018-06-28T02:45:43.310Z,1.15
2018-06-28T02:48:11.564Z,1.30
2018-06-28T02:50:40.497Z,1.17
2018-06-28T02:53:08.778Z,1.72
2018-06-28T02:55:37.007Z,1.02
2018-06-28T02:58:05.417Z,1.98
2018-06-28T03:00:33.626Z,1.00
2018-06-28T03:03:01.867Z,1.05
2018-06-28T03:05:30.186Z,0.90
2018-06-28T03:08:00.369Z,1.50
2018-06-28T03:10:28.631Z,1.57
2018-06-28T03:12:57.131Z,1.50
2018-06-28T03:15:25.376Z,1.10
2018-06-28T03:17:53.663Z,0.93
2018-06-28T03:20:21.986Z,0.90
2018-06-28T03:22:50.229Z,1.00
2018-06-28T03:25:18.453Z,1.10
2018-06-28T03:27:47.090Z,1.00
2018-06-28T03:30:15.344Z,0.80
2018-06-28T03:32:43.561Z,1.00
2018-06-28T03:35:13.313Z,1.20
2018-06-28T03:37:41.612Z,1.07
2018-06-28T03:40:09.779Z,0.98
2018-06-28T03:42:38.058Z,0.82
2018-06-28T03:45:06.795Z,1.05
2018-06-28T03:47:35.067Z,1.32
2018-06-28T03:50:04.869Z,1.52
2018-06-28T03:52:33.115Z,0.82
2018-06-28T03:55:01.327Z,1.10
2018-06-28T03:57:29.949Z,1.00
2018-06-28T03:59:58.154Z,1.10
2018-06-28T04:02:26.392Z,0.80
2018-06-28T04:04:54.642Z,0.90
2018-06-28T04:07:26.500Z,0.80
2018-06-28T04:09:54.746Z,1.35
2018-06-28T04:12:22.987Z,1.12
2018-06-28T04:14:51.203Z,1.72
2018-06-28T04:17:19.487Z,1.20
2018-06-28T04:19:50.810Z,0.95
2018-06-28T04:22:23.597Z,0.93
2018-06-28T04:24:51.962Z,1.07
2018-06-28T04:27:20.209Z,1.27
2018-06-28T04:29:50.132Z,0.90
2018-06-28T04:32:18.372Z,1.17
2018-06-28T04:34:46.623Z,0.95
2018-06-28T04:37:15.099Z,1.47
2018-06-28T04:39:43.335Z,1.30
2018-06-28T04:42:11.563Z,1.07
2018-06-28T04:44:39.939Z,4.83
2018-06-28T04:47:08.163Z,2.70
2018-06-28T04:49:36.422Z,4.30
2018-06-28T04:52:06.230Z,3.27
2018-06-28T04:54:34.495Z,4.53
2018-06-28T04:57:02.715Z,4.17
2018-06-28T04:59:30.995Z,3.40
2018-06-28T05:01:59.251Z,2.02
2018-06-28T05:04:27.487Z,5.47
2018-06-28T05:06:55.805Z,8.13
2018-06-28T05:09:25.594Z,9.13
2018-06-28T05:11:53.855Z,5.75
2018-06-28T05:14:22.121Z,8.30
2018-06-28T05:16:50.380Z,4.28
2018-06-28T05:19:18.610Z,2.98
2018-06-28T05:21:46.870Z,2.50
2018-06-28T05:24:15.083Z,5.33
2018-06-28T05:26:43.331Z,2.92
2018-06-28T05:29:12.137Z,4.10
2018-06-28T05:31:40.371Z,1.75
2018-06-28T05:34:08.603Z,2.87
2018-06-28T05:36:37.057Z,3.05
2018-06-28T05:39:07.855Z,4.00
2018-06-28T05:41:36.312Z,3.83
2018-06-28T05:44:04.609Z,1.47
2018-06-28T05:46:32.836Z,1.60
2018-06-28T05:49:01.238Z,2.35
2018-06-28T05:51:30.302Z,2.17
2018-06-28T05:53:58.612Z,1.67
2018-06-28T05:56:26.825Z,1.10
2018-06-28T05:58:55.942Z,1.80
2018-06-28T06:01:24.245Z,2.27
2018-06-28T06:03:52.533Z,2.10
2018-06-28T06:06:21.083Z,2.40
2018-06-28T06:08:50.794Z,2.20
2018-06-28T06:11:19.062Z,2.42
2018-06-28T06:13:48.071Z,2.58
2018-06-28T06:16:16.298Z,3.83
2018-06-28T06:18:44.631Z,4.80
2018-06-28T06:21:12.999Z,3.08
2018-06-28T06:23:41.239Z,2.58
2018-06-28T06:26:09.463Z,7.08
2018-06-28T06:28:38.650Z,3.47
2018-06-28T06:31:06.903Z,7.40
2018-06-28T06:33:35.131Z,3.58
2018-06-28T06:36:03.682Z,2.27
2018-06-28T06:38:31.926Z,2.40
2018-06-28T06:41:00.155Z,3.60
2018-06-28T06:43:28.674Z,1.40
2018-06-28T06:45:56.806Z,2.62
2018-06-28T06:48:25.017Z,4.00
2018-06-28T06:50:54.061Z,3.15
2018-06-28T06:53:22.320Z,1.57
2018-06-28T06:55:50.549Z,3.87
2018-06-28T06:58:19.608Z,3.12
2018-06-28T07:00:47.872Z,2.33
2018-06-28T07:03:16.106Z,2.87
2018-06-28T07:05:44.322Z,1.77
2018-06-28T07:08:14.599Z,1.82
2018-06-28T07:10:43.858Z,1.42
2018-06-28T07:13:12.087Z,2.83
2018-06-28T07:15:40.358Z,1.50
2018-06-28T07:18:09.095Z,2.58
2018-06-28T07:20:37.346Z,2.62
2018-06-28T07:23:06.073Z,3.08
2018-06-28T07:25:34.858Z,1.82
2018-06-28T07:28:03.094Z,1.77
2018-06-28T07:30:31.474Z,1.98
2018-06-28T07:32:59.755Z,1.87
2018-06-28T07:35:27.987Z,1.35
2018-06-28T07:37:56.211Z,1.75
2018-06-28T07:40:25.135Z,1.45
2018-06-28T07:42:53.371Z,1.50
2018-06-28T07:45:21.646Z,1.42
2018-06-28T07:47:50.779Z,1.37
2018-06-28T07:50:19.064Z,2.02
2018-06-28T07:52:47.292Z,2.00
2018-06-28T07:55:16.367Z,1.75
2018-06-28T07:57:44.604Z,1.75
2018-06-28T08:00:13.024Z,1.62
2018-06-28T08:02:41.580Z,1.92
2018-06-28T08:05:09.804Z,2.87
2018-06-28T08:07:41.906Z,2.45
2018-06-28T08:10:10.174Z,1.27
2018-06-28T08:12:38.402Z,0.90
2018-06-28T08:15:07.038Z,3.87
2018-06-28T08:17:35.282Z,2.70
2018-06-28T08:20:04.491Z,1.92
2018-06-28T08:22:33.107Z,1.82
2018-06-28T08:25:01.432Z,2.10
2018-06-28T08:27:29.686Z,1.82
2018-06-28T08:29:59.162Z,2.10
2018-06-28T08:32:27.419Z,1.42
2018-06-28T08:34:55.988Z,1.70
2018-06-28T08:37:24.282Z,2.42
2018-06-28T08:39:52.732Z,2.87
2018-06-28T08:42:21.080Z,1.40
2018-06-28T08:44:49.299Z,1.30
2018-06-28T08:47:17.539Z,1.87
2018-06-28T08:49:46.195Z,2.05
2018-06-28T08:52:14.463Z,1.40
2018-06-28T08:54:42.701Z,1.55
2018-06-28T08:57:10.981Z,1.55
2018-06-28T08:59:39.221Z,2.15
2018-06-28T09:02:07.469Z,2.08
2018-06-28T09:04:35.970Z,1.30
2018-06-28T09:07:04.271Z,2.12
2018-06-28T09:09:34.681Z,1.20
2018-06-28T09:12:03.142Z,2.02
2018-06-28T09:14:31.381Z,2.60
2018-06-28T09:16:59.598Z,2.17
2018-06-28T09:19:28.282Z,2.10
2018-06-28T09:21:56.546Z,2.05
2018-06-28T09:24:24.953Z,1.72
2018-06-28T09:26:55.169Z,1.85
2018-06-28T09:29:23.377Z,2.65
2018-06-28T09:31:51.646Z,1.62
2018-06-28T09:34:21.035Z,2.15
2018-06-28T09:36:49.302Z,1.92
2018-06-28T09:39:17.570Z,1.57
2018-06-28T09:41:46.359Z,2.37
2018-06-28T09:44:14.598Z,1.55
2018-06-28T09:46:42.845Z,1.30
2018-06-28T09:49:11.286Z,2.33
2018-06-28T09:51:39.540Z,1.45
2018-06-28T09:54:07.759Z,1.95
2018-06-28T09:56:36.054Z,1.40
2018-06-28T09:59:04.465Z,1.67
2018-06-28T10:01:32.729Z,1.80
2018-06-28T10:04:01.564Z,1.35
2018-06-28T10:06:29.796Z,1.35
2018-06-28T10:08:59.760Z,1.40
2018-06-28T10:11:28.192Z,1.75
2018-06-28T10:13:56.527Z,2.02
2018-06-28T10:16:24.941Z,1.35
2018-06-28T10:18:53.482Z,1.55
2018-06-28T10:21:21.722Z,2.37
2018-06-28T10:23:49.979Z,1.35
2018-06-28T10:26:18.779Z,1.22
2018-06-28T10:28:47.246Z,1.30
2018-06-28T10:31:15.243Z,1.95
2018-06-28T10:33:43.761Z,1.70
2018-06-28T10:36:12.208Z,3.15
2018-06-28T10:38:40.462Z,1.52
2018-06-28T10:41:08.994Z,2.15
2018-06-28T10:43:37.241Z,1.70
2018-06-28T10:46:05.500Z,3.20
2018-06-28T10:48:34.131Z,1.62
2018-06-28T10:51:02.364Z,1.57
2018-06-28T10:53:30.616Z,1.50
2018-06-28T10:55:58.874Z,2.17
2018-06-28T10:58:27.127Z,1.30
2018-06-28T11:00:55.354Z,1.70
2018-06-28T11:03:24.006Z,1.27
2018-06-28T11:05:52.268Z,2.67
2018-06-28T11:08:21.739Z,1.65
2018-06-28T11:10:50.543Z,1.40
2018-06-28T11:13:18.751Z,1.40
2018-06-28T11:15:46.991Z,1.30
2018-06-28T11:18:15.602Z,1.27
2018-06-28T11:20:43.906Z,2.35
2018-06-28T11:23:12.412Z,2.95
2018-06-28T11:25:40.653Z,1.32
2018-06-28T11:28:08.902Z,1.40
2018-06-28T11:30:37.162Z,1.30
2018-06-28T11:33:05.881Z,1.20
2018-06-28T11:35:34.140Z,1.37
2018-06-28T11:38:02.485Z,1.62
2018-06-28T11:40:31.323Z,1.37
2018-06-28T11:42:59.581Z,0.72
2018-06-28T11:45:27.810Z,1.10
2018-06-28T11:47:56.236Z,1.67
2018-06-28T11:50:25.803Z,1.42
2018-06-28T11:52:54.037Z,1.72
2018-06-28T11:55:22.298Z,1.55
2018-06-28T11:57:50.545Z,1.30
2018-06-28T12:00:18.858Z,1.42
2018-06-28T12:02:47.130Z,1.47
2018-06-28T12:05:15.466Z,1.55
2018-06-28T12:10:32.232Z,1.37
2018-06-28T12:13:00.618Z,1.27
2018-06-28T12:15:28.943Z,1.77
2018-06-28T12:17:57.124Z,1.05
2018-06-28T12:20:25.569Z,1.15
2018-06-28T12:22:53.799Z,1.22
2018-06-28T12:25:22.040Z,1.20
2018-06-28T12:27:51.725Z,1.37
2018-06-28T12:30:19.971Z,1.17
2018-06-28T12:32:48.211Z,1.00
2018-06-28T12:35:17.078Z,1.10
2018-06-28T12:37:45.332Z,1.00
2018-06-28T12:40:13.587Z,2.25
2018-06-28T12:42:42.210Z,1.52
2018-06-28T12:45:10.474Z,2.00
2018-06-28T12:47:55.062Z,2.05
2018-06-28T12:50:23.305Z,1.20
2018-06-28T12:52:56.817Z,1.00
2018-06-28T12:55:25.963Z,1.87
2018-06-28T12:57:55.465Z,2.12
2018-06-28T13:00:23.730Z,1.40
2018-06-28T13:02:51.997Z,2.45
2018-06-28T13:05:21.282Z,2.35
2018-06-28T13:07:51.598Z,1.47
2018-06-28T13:10:19.841Z,1.20
2018-06-28T13:12:48.298Z,2.22
2018-06-28T13:15:16.671Z,1.22
2018-06-28T13:17:44.917Z,1.10
2018-06-28T13:20:13.361Z,1.30
2018-06-28T13:22:41.556Z,2.55
2018-06-28T13:25:11.217Z,1.15
2018-06-28T13:27:39.522Z,0.98
2018-06-28T13:30:08.990Z,1.98
2018-06-28T13:32:37.241Z,1.52
2018-06-28T13:35:06.023Z,1.32
2018-06-28T13:37:34.286Z,1.42
2018-06-28T13:40:02.566Z,1.30
2018-06-28T13:42:31.884Z,1.30
2018-06-28T13:45:00.120Z,1.12
2018-06-28T13:47:28.386Z,1.00
2018-06-28T13:50:00.112Z,1.30
2018-06-28T13:52:28.329Z,1.07
2018-06-28T13:54:56.588Z,1.72
2018-06-28T13:57:25.245Z,1.20
2018-06-28T13:59:53.473Z,1.07
2018-06-28T14:02:21.718Z,1.10
2018-06-28T14:04:51.074Z,1.42
2018-06-28T14:07:19.307Z,1.17
2018-06-28T14:09:52.358Z,1.20
2018-06-28T14:12:20.828Z,1.22
2018-06-28T14:14:49.079Z,1.20
2018-06-28T14:17:17.368Z,1.00
2018-06-28T14:19:45.965Z,1.87
2018-06-28T14:22:14.296Z,1.30
2018-06-28T14:24:42.655Z,1.20
2018-06-28T14:27:11.716Z,1.12
2018-06-28T14:29:39.982Z,1.00
2018-06-28T14:32:08.305Z,1.35
2018-06-28T14:34:37.375Z,1.10
2018-06-28T14:37:05.645Z,1.22
2018-06-28T14:39:33.965Z,1.50
2018-06-28T14:42:02.291Z,1.17
2018-06-28T14:44:30.533Z,1.20
2018-06-28T14:46:58.778Z,1.10
2018-06-28T14:49:27.440Z,1.10
2018-06-28T14:51:55.687Z,0.88
2018-06-28T14:54:23.946Z,1.00
2018-06-28T14:56:52.534Z,1.17
2018-06-28T14:59:20.746Z,1.17
2018-06-28T15:01:49.002Z,0.93
2018-06-28T15:04:17.888Z,1.32
2018-06-28T15:06:46.041Z,0.93
2018-06-28T15:09:16.316Z,0.93
2018-06-28T15:11:44.956Z,1.10
2018-06-28T15:14:13.213Z,1.02
2018-06-28T15:16:41.758Z,0.93
2018-06-28T15:19:10.009Z,0.95
2018-06-28T15:21:38.271Z,1.10
2018-06-28T15:24:07.108Z,1.00
2018-06-28T15:26:35.366Z,0.90
2018-06-28T15:29:03.657Z,1.10
2018-06-28T15:31:32.753Z,1.05
2018-06-28T15:34:01.178Z,1.07
2018-06-28T15:36:29.410Z,0.90
2018-06-28T15:38:58.400Z,0.88
2018-06-28T15:41:26.654Z,1.10
2018-06-28T15:43:54.929Z,1.55
2018-06-28T15:46:23.338Z,1.10
2018-06-28T15:48:51.599Z,0.80
2018-06-28T15:51:19.837Z,1.42
2018-06-28T15:53:48.570Z,1.15
2018-06-28T15:56:16.831Z,1.27
2018-06-28T15:58:45.068Z,1.17
2018-06-28T16:01:13.616Z,0.90
2018-06-28T16:03:41.883Z,1.05
2018-06-28T16:06:10.158Z,1.40
2018-06-28T16:08:40.284Z,1.40
2018-06-28T16:11:08.915Z,1.32
2018-06-28T16:13:37.155Z,1.20
2018-06-28T16:16:05.850Z,0.90
2018-06-28T16:18:34.293Z,1.27
2018-06-28T16:21:02.540Z,1.12
2018-06-28T16:23:30.967Z,1.00
2018-06-28T16:25:59.249Z,1.37
2018-06-28T16:28:27.518Z,1.87
2018-06-28T16:30:56.534Z,1.30
2018-06-28T16:33:24.820Z,2.25
2018-06-28T16:35:53.069Z,1.42
2018-06-28T16:38:21.439Z,1.42
2018-06-28T16:40:49.696Z,2.58
2018-06-28T16:43:18.907Z,1.67
2018-06-28T16:45:47.317Z,2.00
2018-06-28T16:48:15.558Z,3.05
2018-06-28T16:50:43.847Z,1.72
2018-06-28T16:53:13.363Z,2.10
2018-06-28T16:55:41.642Z,1.32
2018-06-28T16:58:10.680Z,2.62
2018-06-28T17:00:39.599Z,3.22
2018-06-28T17:03:08.796Z,3.02
2018-06-28T17:05:37.041Z,1.52
2018-06-28T17:08:07.648Z,1.47
2018-06-28T17:10:35.915Z,1.15
2018-06-28T17:13:05.790Z,2.55
2018-06-28T17:15:34.516Z,1.20
2018-06-28T17:18:02.782Z,1.65
2018-06-28T17:20:31.053Z,2.00
2018-06-28T17:22:59.744Z,1.30
2018-06-28T17:25:28.016Z,2.50
2018-06-28T17:27:56.346Z,1.30
2018-06-28T17:30:24.882Z,1.15
2018-06-28T17:32:53.124Z,2.22
2018-06-28T17:35:21.370Z,1.62
2018-06-28T17:37:49.672Z,2.02
2018-06-28T17:40:18.000Z,1.45
2018-06-28T17:42:46.198Z,1.02
2018-06-28T17:45:14.655Z,1.45
2018-06-28T17:47:42.898Z,1.40
2018-06-28T17:50:11.134Z,1.00
2018-06-28T17:52:39.690Z,1.00
2018-06-28T17:55:07.965Z,2.15
2018-06-28T17:57:36.204Z,2.30
2018-06-28T18:00:05.840Z,1.82
2018-06-28T18:02:34.111Z,1.32
2018-06-28T18:05:02.377Z,0.70
2018-06-28T18:07:30.893Z,1.57
2018-06-28T18:09:59.166Z,1.57
2018-06-28T18:12:27.431Z,1.45
2018-06-28T18:14:56.966Z,0.90
2018-06-28T18:17:25.222Z,1.32
2018-06-28T18:19:53.459Z,0.82
2018-06-28T18:22:22.085Z,1.42
2018-06-28T18:24:50.724Z,0.80
2018-06-28T18:27:19.231Z,0.85
2018-06-28T18:29:47.545Z,1.17
2018-06-28T18:32:15.778Z,0.95
2018-06-28T18:34:44.029Z,1.95
2018-06-28T18:37:12.871Z,1.40
2018-06-28T18:39:41.119Z,0.80
2018-06-28T18:42:09.384Z,1.50
2018-06-28T18:44:37.919Z,1.90
2018-06-28T18:47:06.336Z,1.00
2018-06-28T18:49:34.815Z,1.65
2018-06-28T18:52:03.251Z,1.10
2018-06-28T18:54:31.530Z,1.35
2018-06-28T18:56:59.803Z,1.37
2018-06-28T18:59:29.218Z,1.02
2018-06-28T19:01:57.515Z,1.60
2018-06-28T19:04:25.796Z,1.62
2018-06-28T19:06:53.829Z,0.80
2018-06-28T19:09:23.931Z,1.32
2018-06-28T19:11:52.203Z,1.27
2018-06-28T19:14:26.195Z,2.20
2018-06-28T19:16:55.634Z,2.58
2018-06-28T19:19:23.927Z,1.25
2018-06-28T19:21:57.712Z,2.87
2018-06-28T19:24:26.120Z,1.15
2018-06-28T19:26:54.393Z,1.67
2018-06-28T19:29:28.139Z,1.67
2018-06-28T19:32:01.848Z,0.75
2018-06-28T19:34:30.690Z,2.27
2018-06-28T19:36:58.935Z,1.00
2018-06-28T19:39:34.713Z,1.85
2018-06-28T19:42:08.347Z,1.57
2018-06-28T19:44:38.533Z,3.62
2018-06-28T19:47:06.824Z,1.02
2018-06-28T19:49:41.022Z,1.42
2018-06-28T19:53:17.247Z,1.27
2018-06-28T19:55:46.703Z,1.47
2018-06-28T19:58:14.978Z,2.42
2018-06-28T20:00:48.795Z,0.78
2018-06-28T20:03:22.523Z,2.10
2018-06-28T20:05:51.077Z,1.00
2018-06-28T20:08:19.339Z,1.62
2018-06-28T20:10:47.636Z,1.27
2018-06-28T20:13:21.330Z,1.30
2018-06-28T20:15:56.021Z,1.82
2018-06-28T20:19:33.878Z,1.37
2018-06-28T20:22:02.128Z,1.07
2018-06-28T20:24:30.495Z,0.72
2018-06-28T20:27:04.858Z,1.35
2018-06-28T20:29:38.664Z,0.98
2018-06-28T20:32:17.697Z,1.62
2018-06-28T20:34:45.939Z,2.67
2018-06-28T20:37:16.080Z,1.30
2018-06-28T20:39:44.339Z,2.77
2018-06-28T20:42:12.614Z,3.90
2018-06-28T20:44:41.006Z,1.77
2018-06-28T20:47:09.253Z,1.75
2018-06-28T20:49:37.547Z,0.80
2018-06-28T20:52:06.131Z,0.70
2018-06-28T20:54:34.407Z,0.72
2018-06-28T20:57:02.661Z,1.55
2018-06-28T20:59:31.661Z,1.30
2018-06-28T21:01:59.930Z,0.80
2018-06-28T21:04:28.227Z,0.70
2018-06-28T21:06:56.512Z,1.57
2018-06-28T21:09:24.780Z,0.90
2018-06-28T21:11:53.054Z,0.90
2018-06-28T21:14:21.588Z,1.00
2018-06-28T21:16:49.850Z,1.60
2018-06-28T21:19:19.322Z,0.78
2018-06-28T21:21:47.651Z,0.60
2018-06-28T21:24:15.889Z,1.50
2018-06-28T21:26:44.171Z,1.50
2018-06-28T21:29:12.654Z,1.02
2018-06-28T21:31:40.945Z,1.10
2018-06-28T21:34:09.347Z,1.35
2018-06-28T21:36:39.453Z,1.20
2018-06-28T21:39:09.186Z,0.88
2018-06-28T21:41:37.451Z,0.80
2018-06-28T21:44:05.703Z,1.27
2018-06-28T21:46:33.982Z,0.50
2018-06-28T21:49:03.061Z,0.90
2018-06-28T21:51:31.330Z,0.72
2018-06-28T21:53:59.568Z,0.60
2018-06-28T21:56:28.111Z,2.25
2018-06-28T21:58:56.393Z,0.82
2018-06-28T22:01:24.648Z,1.00
2018-06-28T22:03:52.946Z,0.82
2018-06-28T22:06:21.206Z,1.62
2018-06-28T22:08:49.475Z,0.80
2018-06-28T22:11:18.962Z,0.78
2018-06-28T22:13:47.305Z,0.70
2018-06-28T22:16:15.570Z,0.68
2018-06-28T22:18:44.849Z,1.20
2018-06-28T22:21:13.494Z,0.55
2018-06-28T22:23:41.764Z,0.80
2018-06-28T22:26:10.070Z,0.60
2018-06-28T22:28:38.251Z,0.70
2018-06-28T22:31:06.522Z,0.72
2018-06-28T22:33:34.846Z,0.70
2018-06-28T22:36:02.846Z,0.90
2018-06-28T22:38:31.094Z,0.82
2018-06-28T22:40:59.345Z,0.78
2018-06-28T22:43:27.574Z,2.33
2018-06-28T22:45:55.830Z,0.75
2018-06-28T22:48:24.169Z,0.72
2018-06-28T22:50:52.410Z,0.93
2018-06-28T22:53:20.647Z,0.60
2018-06-28T22:55:49.104Z,0.85
2018-06-28T22:58:17.326Z,0.70
2018-06-28T23:00:45.551Z,0.60
2018-06-28T23:03:14.554Z,0.60
2018-06-28T23:05:42.797Z,1.00
2018-06-28T23:08:13.043Z,0.70
2018-06-28T23:10:41.417Z,0.70
2018-06-28T23:13:09.711Z,0.72
2018-06-28T23:15:37.890Z,0.90
2018-06-28T23:18:06.351Z,0.60
2018-06-28T23:20:34.590Z,0.60
2018-06-28T23:23:03.241Z,0.60
2018-06-28T23:25:33.137Z,1.10
2018-06-28T23:28:01.391Z,1.00
2018-06-28T23:30:29.633Z,2.25
2018-06-28T23:32:57.936Z,1.00
2018-06-28T23:35:26.195Z,1.02
2018-06-28T23:37:54.428Z,0.60
2018-06-28T23:40:23.103Z,1.67
2018-06-28T23:42:51.368Z,0.50
2018-06-28T23:45:19.611Z,0.93
2018-06-28T23:47:48.769Z,0.68
2018-06-28T23:50:17.018Z,0.70
2018-06-28T23:52:45.263Z,0.75
2018-06-28T23:55:13.570Z,0.70
2018-06-28T23:57:41.817Z,0.75
